Time;durP1;ratioP1;P1;durP2;ratioP2;P2;SDS_P1;SDS_P2;PMS_P1;PMS_P2;Temp;Humidity;BMP_temperature;BMP_pressure;BME280_temperature;BME280_humidity;BME280_pressure;Samples;Min_cycle;Max_cycle;Signal;HPM_P1;HPM_P2
2022/08/23 00:02:14;;;;;;;2.03;1.80;;;18.90;72.30;19.50;96417.00;;;;5073047;28;20652;-81
2022/08/23 00:04:45;;;;;;;2.53;1.70;;;19.00;72.30;19.50;96423.00;;;;5071844;28;20699;-82
2022/08/23 00:07:16;;;;;;;1.60;1.50;;;19.00;72.40;19.50;96420.00;;;;5072296;28;20206;-82
2022/08/23 00:09:43;;;;;;;1.93;1.40;;;19.00;72.60;19.50;96419.00;;;;5072943;28;20224;-82
2022/08/23 00:12:15;;;;;;;1.27;1.23;;;19.00;72.70;19.50;96418.00;;;;5072805;28;20677;-82
2022/08/23 00:14:48;;;;;;;1.50;1.40;;;19.00;72.90;19.50;96417.00;;;;5072449;28;20502;-82
2022/08/23 00:17:17;;;;;;;1.50;1.40;;;19.00;72.90;19.60;96417.00;;;;5072317;28;20618;-82
2022/08/23 00:19:46;;;;;;;2.63;1.70;;;19.10;73.10;19.60;96417.00;;;;5071340;28;20235;-82
2022/08/23 00:22:15;;;;;;;3.27;1.53;;;19.00;72.90;19.60;96412.00;;;;5071624;28;20200;-81
2022/08/23 00:24:42;;;;;;;2.10;1.70;;;19.00;72.80;19.60;96416.00;;;;5071474;28;20227;-80
2022/08/23 00:27:14;;;;;;;2.50;1.67;;;19.10;73.00;19.60;96419.00;;;;5071594;28;20199;-82
2022/08/23 00:29:45;;;;;;;1.70;1.60;;;19.10;73.10;19.60;96417.00;;;;5071500;28;20247;-81
2022/08/23 00:32:18;;;;;;;2.43;1.70;;;19.10;73.10;19.60;96421.00;;;;5071425;28;20329;-82
2022/08/23 00:34:45;;;;;;;1.60;1.50;;;19.10;73.00;19.60;96420.00;;;;5070681;28;20200;-82
2022/08/23 00:37:14;;;;;;;1.67;1.57;;;19.10;72.90;19.60;96422.00;;;;5071361;28;20261;-80
2022/08/23 00:39:41;;;;;;;1.90;1.80;;;19.10;72.90;19.60;96421.00;;;;5071512;28;20220;-81
2022/08/23 00:47:51;;;;;;;1.63;1.50;;;19.10;72.90;19.60;96414.00;;;;5072237;28;20203;-81
2022/08/23 00:50:27;;;;;;;1.43;1.33;;;19.10;73.10;19.60;96417.00;;;;5071566;28;20208;-82
2022/08/23 00:53:06;;;;;;;1.53;1.43;;;19.10;73.30;19.60;96414.00;;;;5071411;28;20249;-82
2022/08/23 00:55:35;;;;;;;2.13;1.30;;;19.10;73.40;19.60;96411.00;;;;5071023;28;20207;-81
2022/08/23 00:58:03;;;;;;;2.03;1.60;;;19.10;73.20;19.60;96413.00;;;;5070869;28;20687;-82
2022/08/23 01:00:32;;;;;;;1.87;1.77;;;19.10;73.20;19.50;96405.00;;;;5071128;28;20627;-82
2022/08/23 01:03:03;;;;;;;1.40;1.30;;;19.00;73.00;19.50;96411.00;;;;5071253;28;20204;-82
2022/08/23 01:05:42;;;;;;;1.50;1.30;;;19.00;73.00;19.50;96410.00;;;;5070989;28;20287;-82
2022/08/23 01:08:09;;;;;;;2.07;1.70;;;19.00;73.10;19.50;96413.00;;;;5071613;28;20599;-82
2022/08/23 01:10:42;;;;;;;2.33;1.60;;;19.00;73.10;19.50;96407.00;;;;5070744;28;20319;-82
2022/08/23 01:13:14;;;;;;;1.80;1.70;;;19.00;73.40;19.50;96413.00;;;;5071045;28;20199;-80
2022/08/23 01:15:48;;;;;;;1.77;1.50;;;19.00;73.50;19.50;96415.00;;;;5070350;28;20219;-81
2022/08/23 01:18:21;;;;;;;2.57;1.50;;;19.00;73.60;19.50;96411.00;;;;5070950;28;20238;-81
2022/08/23 01:20:56;;;;;;;1.50;1.40;;;19.00;73.50;19.50;96416.00;;;;5071105;28;20283;-82
2022/08/23 01:23:31;;;;;;;1.50;1.40;;;19.00;73.30;19.40;96416.00;;;;5071009;28;20708;-82
2022/08/23 01:25:59;;;;;;;1.40;1.30;;;19.00;73.10;19.40;96421.00;;;;5070427;28;20749;-81
2022/08/23 01:28:26;;;;;;;1.23;1.13;;;18.90;73.00;19.40;96418.00;;;;5070937;28;20957;-82
2022/08/23 01:30:53;;;;;;;1.50;1.40;;;18.90;72.90;19.30;96412.00;;;;5070847;28;20245;-82
2022/08/23 01:33:21;;;;;;;1.50;1.40;;;18.90;72.90;19.30;96412.00;;;;5054089;28;20204;-84
2022/08/23 01:35:52;;;;;;;1.50;1.40;;;18.80;73.00;19.30;96416.00;;;;5051045;28;20230;-84
2022/08/23 01:38:21;;;;;;;1.40;1.30;;;18.80;73.30;19.30;96421.00;;;;5051618;28;20210;-84
2022/08/23 01:40:50;;;;;;;3.43;1.57;;;18.80;73.50;19.20;96414.00;;;;5053121;28;20227;-84
2022/08/23 01:43:20;;;;;;;2.10;1.50;;;18.80;73.70;19.20;96418.00;;;;5053707;28;20589;-84
2022/08/23 01:45:49;;;;;;;1.50;1.40;;;18.80;73.80;19.20;96417.00;;;;5050825;28;20288;-84
2022/08/23 01:48:18;;;;;;;1.90;1.50;;;18.80;73.90;19.20;96416.00;;;;5053860;28;20192;-84
2022/08/23 01:50:46;;;;;;;2.67;1.83;;;18.80;73.70;19.20;96417.00;;;;5054903;28;20220;-84
2022/08/23 01:53:14;;;;;;;1.37;1.27;;;18.80;73.80;19.20;96431.00;;;;5054502;28;20751;-84
2022/08/23 01:55:43;;;;;;;1.93;1.33;;;18.70;73.70;19.20;96422.00;;;;5096162;22;20264;-86
2022/08/23 01:58:12;;;;;;;1.53;1.43;;;18.70;73.60;19.10;96421.00;;;;5095468;28;20203;-86
2022/08/23 02:00:43;;;;;;;1.70;1.60;;;18.70;74.30;19.10;96420.00;;;;5095178;28;20306;-86
2022/08/23 02:03:12;;;;;;;2.30;1.20;;;18.70;73.40;19.10;96418.00;;;;5110610;28;20285;-86
2022/08/23 02:05:40;;;;;;;1.10;1.10;;;18.70;73.30;19.10;96424.00;;;;5115507;28;20222;-86
2022/08/23 02:10:59;;;;;;;2.20;1.50;;;18.60;73.00;19.00;96423.00;;;;5101545;22;20579;-83
2022/08/23 02:13:28;;;;;;;1.20;1.10;;;18.60;72.90;18.90;96428.00;;;;5098749;28;20191;-83
2022/08/23 02:15:56;;;;;;;1.33;1.23;;;18.50;72.80;18.90;96422.00;;;;5097969;28;20202;-83
2022/08/23 02:18:23;;;;;;;1.73;1.50;;;18.50;72.80;18.80;96422.00;;;;5098789;28;20710;-84
2022/08/23 02:20:52;;;;;;;1.93;1.37;;;18.50;72.70;18.80;96422.00;;;;5077246;28;20228;-81
2022/08/23 02:23:22;;;;;;;1.23;1.13;;;18.40;72.60;18.80;96419.00;;;;5077042;28;20257;-82
2022/08/23 02:25:51;;;;;;;1.37;1.30;;;18.40;72.60;18.70;96430.00;;;;5076463;28;20199;-82
2022/08/23 02:28:19;;;;;;;1.50;1.40;;;18.30;72.60;18.60;96433.00;;;;5076451;28;20641;-81
2022/08/23 02:30:48;;;;;;;1.60;1.50;;;18.30;72.60;18.60;96422.00;;;;5076657;28;20224;-82
2022/08/23 02:33:16;;;;;;;1.40;1.30;;;18.20;72.50;18.60;96425.00;;;;5077268;28;20211;-82
2022/08/23 02:35:44;;;;;;;1.37;1.27;;;18.20;72.50;18.50;96416.00;;;;5076984;28;20208;-83
2022/08/23 02:38:13;;;;;;;1.57;1.40;;;18.10;72.50;18.40;96423.00;;;;5077961;28;20208;-82
2022/08/23 02:40:42;;;;;;;1.53;1.43;;;18.10;72.50;18.40;96424.00;;;;5076940;28;20246;-82
2022/08/23 02:43:11;;;;;;;1.30;1.30;;;18.00;72.40;18.30;96434.00;;;;5076943;28;20283;-82
2022/08/23 02:45:40;;;;;;;1.73;1.60;;;18.00;72.40;18.30;96430.00;;;;5076869;28;20329;-82
2022/08/23 02:48:10;;;;;;;1.50;1.40;;;17.90;72.60;18.20;96426.00;;;;5077811;28;20204;-82
2022/08/23 02:50:37;;;;;;;1.50;1.40;;;17.90;72.80;18.20;96426.00;;;;5077250;28;20338;-81
2022/08/23 02:53:05;;;;;;;1.40;1.30;;;17.80;72.80;18.20;96440.00;;;;5077584;28;20200;-82
2022/08/23 02:55:33;;;;;;;2.07;1.20;;;17.90;73.00;18.20;96438.00;;;;5077761;28;20206;-81
2022/08/23 02:58:00;;;;;;;1.60;1.40;;;17.80;72.90;18.10;96434.00;;;;5077331;28;20249;-82
2022/08/23 03:00:27;;;;;;;1.40;1.30;;;17.80;73.00;18.10;96434.00;;;;5077182;28;20228;-81
2022/08/23 03:02:55;;;;;;;1.40;1.30;;;17.80;73.00;18.10;96441.00;;;;5077964;28;20199;-82
2022/08/23 03:05:24;;;;;;;1.77;1.67;;;17.70;73.00;18.00;96440.00;;;;5078069;28;20240;-82
2022/08/23 03:07:51;;;;;;;1.63;1.40;;;17.60;72.90;18.00;96435.00;;;;5077929;28;20786;-82
2022/08/23 03:10:18;;;;;;;2.60;1.63;;;17.60;72.90;17.90;96438.00;;;;5078077;28;20228;-82
2022/08/23 03:12:45;;;;;;;1.90;1.80;;;17.60;72.90;17.90;96439.00;;;;5078157;28;20196;-82
2022/08/23 03:15:13;;;;;;;1.50;1.40;;;17.60;72.90;17.80;96438.00;;;;5077019;28;20204;-82
2022/08/23 03:17:40;;;;;;;1.53;1.43;;;17.50;72.90;17.80;96437.00;;;;5076545;28;20691;-83
2022/08/23 03:20:09;;;;;;;1.37;1.27;;;17.50;72.90;17.80;96433.00;;;;5076504;28;20655;-83
2022/08/23 03:22:38;;;;;;;2.37;1.60;;;17.50;73.00;17.70;96435.00;;;;5076241;28;20656;-82
2022/08/23 03:25:07;;;;;;;1.60;1.50;;;17.40;73.00;17.70;96439.00;;;;5076171;28;20277;-82
2022/08/23 03:27:35;;;;;;;1.97;1.77;;;17.40;73.10;17.70;96433.00;;;;5076131;28;20254;-80
2022/08/23 03:30:02;;;;;;;1.33;1.30;;;17.30;73.10;17.60;96432.00;;;;5076007;28;20688;-81
2022/08/23 03:32:30;;;;;;;1.63;1.53;;;17.30;73.10;17.60;96445.00;;;;5076566;28;20265;-82
2022/08/23 03:34:57;;;;;;;1.73;1.63;;;17.30;73.20;17.60;96442.00;;;;5076288;28;20229;-82
2022/08/23 03:37:24;;;;;;;1.53;1.43;;;17.20;73.20;17.50;96453.00;;;;5077113;28;20200;-81
2022/08/23 03:39:53;;;;;;;1.60;1.50;;;17.20;74.10;17.50;96457.00;;;;5077030;28;20216;-82
2022/08/23 03:42:20;;;;;;;1.90;1.80;;;17.20;73.50;17.40;96453.00;;;;5076482;28;20242;-82
2022/08/23 03:44:47;;;;;;;1.90;1.40;;;17.20;73.50;17.40;96461.00;;;;5076607;28;20224;-83
2022/08/23 03:47:15;;;;;;;1.30;1.20;;;17.10;73.50;17.40;96456.00;;;;5078267;28;20200;-81
2022/08/23 03:49:42;;;;;;;2.33;1.50;;;17.10;73.70;17.30;96448.00;;;;5077067;28;20274;-82
2022/08/23 03:52:10;;;;;;;1.50;1.40;;;17.10;73.70;17.30;96458.00;;;;5077011;28;20230;-83
2022/08/23 03:54:37;;;;;;;1.60;1.47;;;17.10;73.80;17.30;96454.00;;;;5077383;28;20211;-82
2022/08/23 03:57:09;;;;;;;1.67;1.57;;;17.00;73.80;17.30;96455.00;;;;5076981;28;20288;-83
2022/08/23 03:59:39;;;;;;;1.60;1.50;;;17.00;73.80;17.20;96460.00;;;;5077229;28;20255;-82
2022/08/23 04:02:07;;;;;;;2.00;1.40;;;17.00;73.80;17.20;96471.00;;;;5077067;28;20207;-83
2022/08/23 04:04:36;;;;;;;2.00;1.40;;;17.00;73.80;17.20;96471.00;;;;5076583;28;20314;-83
2022/08/23 04:07:07;;;;;;;1.40;1.27;;;17.00;73.90;17.20;96473.00;;;;5076066;28;20207;-82
2022/08/23 04:09:34;;;;;;;1.33;1.23;;;16.90;73.80;17.10;96472.00;;;;5075456;28;20220;-82
2022/08/23 04:12:02;;;;;;;1.83;1.40;;;16.90;73.80;17.10;96472.00;;;;5075589;28;20235;-84
2022/08/23 04:14:31;;;;;;;1.63;1.23;;;16.90;73.80;17.10;96477.00;;;;5075661;28;20218;-82
2022/08/23 04:16:58;;;;;;;1.33;1.23;;;16.90;73.80;17.00;96474.00;;;;5074965;28;20660;-82
2022/08/23 04:19:25;;;;;;;1.90;1.30;;;16.80;73.80;17.00;96478.00;;;;5076413;28;20658;-83
2022/08/23 04:21:53;;;;;;;1.60;1.50;;;16.80;73.80;17.00;96483.00;;;;5077852;28;20199;-82
2022/08/23 04:24:21;;;;;;;1.70;1.60;;;16.80;73.80;16.90;96485.00;;;;5076665;28;20708;-84
2022/08/23 04:26:48;;;;;;;2.53;1.63;;;16.70;73.90;16.90;96489.00;;;;5076464;28;20249;-84
2022/08/23 04:29:16;;;;;;;1.53;1.43;;;16.70;73.90;16.90;96493.00;;;;5076136;28;20307;-83
2022/08/23 04:31:46;;;;;;;2.20;1.63;;;16.70;74.10;16.90;96493.00;;;;5076366;28;20199;-83
2022/08/23 04:34:13;;;;;;;1.60;1.50;;;16.70;74.10;16.90;96500.00;;;;5077170;28;20764;-83
2022/08/23 04:36:43;;;;;;;1.63;1.30;;;16.70;74.00;16.80;96496.00;;;;5076680;28;20204;-84
2022/08/23 04:39:11;;;;;;;1.53;1.43;;;16.70;74.00;16.80;96495.00;;;;5076746;28;20265;-84
2022/08/23 04:44:26;;;;;;;1.80;1.70;;;16.60;74.10;16.80;96501.00;;;;5073733;28;20607;-83
2022/08/23 04:46:54;;;;;;;1.70;1.60;;;16.60;74.10;16.80;96502.00;;;;5075300;28;20204;-82
2022/08/23 04:49:22;;;;;;;1.60;1.50;;;16.60;74.30;16.80;96505.00;;;;5075317;28;20692;-83
2022/08/23 04:51:49;;;;;;;1.80;1.70;;;16.60;74.40;16.80;96502.00;;;;5075151;28;20208;-82
2022/08/23 04:54:16;;;;;;;1.87;1.50;;;16.50;74.50;16.80;96504.00;;;;5075161;28;20234;-83
2022/08/23 04:56:44;;;;;;;1.93;1.83;;;16.50;74.60;16.80;96502.00;;;;5075491;28;20632;-83
2022/08/23 04:59:11;;;;;;;1.83;1.73;;;16.50;74.60;16.80;96505.00;;;;5074867;28;20273;-82
2022/08/23 05:01:41;;;;;;;1.90;1.70;;;16.50;74.80;16.80;96510.00;;;;5072487;28;20716;-83
2022/08/23 05:04:10;;;;;;;2.03;1.93;;;16.50;74.90;16.80;96514.00;;;;5055672;28;20299;-83
2022/08/23 05:06:37;;;;;;;1.87;1.70;;;16.50;75.10;16.80;96509.00;;;;5055611;28;20227;-83
2022/08/23 05:09:05;;;;;;;1.90;1.70;;;16.50;75.20;16.80;96516.00;;;;5055314;28;20225;-83
2022/08/23 05:11:32;;;;;;;2.93;1.83;;;16.50;75.50;16.80;96505.00;;;;5055308;28;20243;-83
2022/08/23 05:14:05;;;;;;;1.87;1.77;;;16.50;75.60;16.80;96513.00;;;;5054259;28;20197;-83
2022/08/23 05:16:33;;;;;;;2.10;1.90;;;16.50;75.80;16.80;96514.00;;;;5052429;28;20196;-83
2022/08/23 05:19:03;;;;;;;1.83;1.73;;;16.50;75.80;16.90;96514.00;;;;5053141;28;20783;-83
2022/08/23 05:21:32;;;;;;;2.13;2.00;;;16.60;76.60;16.90;96525.00;;;;5054059;28;20288;-82
2022/08/23 05:24:01;;;;;;;1.90;1.80;;;16.60;76.10;16.90;96515.00;;;;5053910;28;20271;-83
2022/08/23 05:26:28;;;;;;;2.07;1.97;;;16.60;76.10;16.90;96521.00;;;;5054041;28;20686;-82
2022/08/23 05:28:55;;;;;;;1.90;1.80;;;16.60;76.10;16.90;96526.00;;;;5056055;28;20301;-83
2022/08/23 05:31:26;;;;;;;1.90;1.80;;;16.60;76.20;16.90;96527.00;;;;5056932;28;20200;-83
2022/08/23 05:33:54;;;;;;;2.13;2.03;;;16.70;76.40;16.90;96528.00;;;;5077016;28;20265;-83
2022/08/23 05:36:21;;;;;;;2.13;1.93;;;16.70;76.50;17.00;96535.00;;;;5077999;28;20196;-83
2022/08/23 05:38:52;;;;;;;1.90;1.80;;;16.70;76.50;17.00;96529.00;;;;5077400;28;20226;-83
2022/08/23 05:41:20;;;;;;;2.83;2.63;;;16.70;76.70;17.10;96531.00;;;;5077362;28;20203;-83
2022/08/23 05:43:49;;;;;;;2.10;1.90;;;16.70;77.50;17.10;96530.00;;;;5076550;28;20196;-84
2022/08/23 05:46:19;;;;;;;2.60;2.40;;;16.80;76.90;17.10;96535.00;;;;5075542;28;20306;-84
2022/08/23 05:48:49;;;;;;;2.00;1.80;;;16.80;77.00;17.20;96537.00;;;;5075394;28;20302;-85
2022/08/23 05:51:21;;;;;;;1.97;1.87;;;16.90;77.10;17.20;96542.00;;;;5073879;28;20699;-84
2022/08/23 05:53:53;;;;;;;2.20;2.00;;;16.90;77.10;17.30;96551.00;;;;5076353;28;20204;-85
2022/08/23 05:56:24;;;;;;;2.50;2.40;;;16.90;77.10;17.30;96546.00;;;;5075591;28;20219;-85
2022/08/23 05:58:53;;;;;;;2.80;2.60;;;17.00;77.10;17.40;96546.00;;;;5075474;28;20254;-84
2022/08/23 06:01:22;;;;;;;1.90;1.80;;;17.00;77.00;17.40;96555.00;;;;5075259;28;20200;-84
2022/08/23 06:03:50;;;;;;;3.00;2.30;;;17.10;77.10;17.50;96549.00;;;;5072642;28;20265;-85
2022/08/23 06:06:19;;;;;;;2.20;2.00;;;17.10;77.20;17.50;96545.00;;;;5073262;28;20306;-85
2022/08/23 06:08:48;;;;;;;2.50;2.33;;;17.20;77.20;17.60;96551.00;;;;5075153;28;20226;-84
2022/08/23 06:11:19;;;;;;;2.30;2.10;;;17.20;77.10;17.70;96560.00;;;;5076331;28;20624;-84
2022/08/23 06:13:50;;;;;;;2.60;2.40;;;17.30;77.10;17.70;96560.00;;;;5075820;28;20677;-85
2022/08/23 06:16:25;;;;;;;2.40;2.20;;;17.30;77.10;17.80;96561.00;;;;5072259;28;20217;-85
2022/08/23 06:18:54;;;;;;;2.10;2.00;;;17.40;77.10;17.80;96556.00;;;;5072083;28;20223;-85
2022/08/23 06:21:22;;;;;;;1.93;1.83;;;17.40;77.10;17.90;96565.00;;;;5072043;28;20746;-85
2022/08/23 06:23:50;;;;;;;2.40;2.20;;;17.50;77.20;18.00;96562.00;;;;5072193;28;20881;-84
2022/08/23 06:26:34;;;;;;;2.30;2.13;;;17.60;77.20;18.00;96572.00;;;;5071575;28;20255;-85
2022/08/23 06:29:09;;;;;;;2.20;2.00;;;17.60;77.20;18.10;96566.00;;;;5070902;28;20227;-85
2022/08/23 06:31:53;;;;;;;2.70;2.50;;;17.60;77.10;18.20;96568.00;;;;5071060;28;20196;-86
2022/08/23 06:34:32;;;;;;;1.93;1.73;;;17.70;77.00;18.20;96571.00;;;;5073468;28;20612;-85
2022/08/23 06:37:08;;;;;;;3.07;2.43;;;17.80;77.00;18.30;96564.00;;;;5074833;28;20187;-85
2022/08/23 06:39:41;;;;;;;2.37;2.27;;;17.90;77.00;18.40;96568.00;;;;5074988;28;20249;-84
2022/08/23 06:42:16;;;;;;;2.17;2.07;;;17.90;76.90;18.50;96575.00;;;;5075145;28;20665;-84
2022/08/23 06:44:45;;;;;;;2.60;2.40;;;18.00;76.70;18.50;96571.00;;;;5075633;28;20246;-84
2022/08/23 06:47:14;;;;;;;2.10;2.00;;;18.10;77.60;18.60;96569.00;;;;5074619;28;20249;-84
2022/08/23 06:49:41;;;;;;;2.90;1.90;;;18.10;76.80;18.70;96574.00;;;;5075213;28;20277;-84
2022/08/23 06:52:08;;;;;;;2.30;2.10;;;18.20;76.80;18.80;96583.00;;;;5076533;28;20192;-83
2022/08/23 06:54:39;;;;;;;2.47;2.20;;;18.30;76.70;18.90;96586.00;;;;5077562;28;20261;-84
2022/08/23 06:57:08;;;;;;;2.77;2.30;;;18.40;76.70;18.90;96578.00;;;;5076381;28;20188;-84
2022/08/23 06:59:38;;;;;;;2.87;2.40;;;18.40;76.60;19.00;96579.00;;;;5075198;28;20216;-83
2022/08/23 07:02:10;;;;;;;2.70;2.50;;;18.50;76.40;19.10;96583.00;;;;5073933;28;20645;-84
2022/08/23 07:04:41;;;;;;;3.17;2.60;;;18.60;76.40;19.20;96585.00;;;;5077237;28;20261;-83
2022/08/23 07:07:14;;;;;;;2.73;2.17;;;18.70;76.50;19.30;96585.00;;;;5076990;28;20216;-84
2022/08/23 07:09:46;;;;;;;2.23;2.13;;;18.80;76.60;19.40;96583.00;;;;5079311;28;20245;-84
2022/08/23 07:12:21;;;;;;;4.03;2.40;;;18.80;76.40;19.50;96591.00;;;;5077801;28;20197;-83
2022/08/23 07:14:54;;;;;;;2.73;2.43;;;18.90;76.30;19.60;96598.00;;;;5076956;28;20546;-84
2022/08/23 07:17:24;;;;;;;2.73;2.20;;;19.00;76.30;19.80;96598.00;;;;5078110;28;20204;-83
2022/08/23 07:19:55;;;;;;;2.30;2.10;;;19.10;76.30;20.00;96603.00;;;;5078294;28;20281;-83
2022/08/23 07:22:23;;;;;;;2.30;2.00;;;19.30;76.40;20.20;96598.00;;;;5078226;28;20218;-83
2022/08/23 07:24:55;;;;;;;2.10;2.00;;;19.40;76.20;20.40;96598.00;;;;5076039;28;20634;-83
2022/08/23 07:27:27;;;;;;;2.60;2.40;;;19.50;76.00;20.60;96606.00;;;;5077947;28;20223;-83
2022/08/23 07:30:01;;;;;;;2.13;2.00;;;19.70;75.80;20.80;96609.00;;;;5076965;28;20219;-84
2022/08/23 07:32:29;;;;;;;1.93;1.83;;;19.90;75.70;20.90;96612.00;;;;5076932;28;20203;-83
2022/08/23 07:35:02;;;;;;;2.73;2.10;;;20.00;75.80;21.10;96617.00;;;;5067184;28;20203;-83
2022/08/23 07:37:29;;;;;;;2.10;1.80;;;20.20;75.60;21.30;96621.00;;;;5055016;28;20193;-84
2022/08/23 07:40:02;;;;;;;3.13;1.83;;;20.40;75.60;21.50;96618.00;;;;5056431;28;20223;-83
2022/08/23 07:42:34;;;;;;;2.00;1.73;;;20.60;74.70;21.70;96622.00;;;;5057798;28;20199;-83
2022/08/23 07:45:11;;;;;;;2.03;1.83;;;20.70;74.40;21.90;96617.00;;;;5056851;28;20619;-83
2022/08/23 07:47:41;;;;;;;2.07;1.73;;;20.90;74.00;22.00;96621.00;;;;5058754;28;20239;-83
2022/08/23 07:50:13;;;;;;;3.30;2.13;;;21.00;74.00;22.20;96631.00;;;;5055586;28;20216;-84
2022/08/23 07:52:44;;;;;;;2.03;1.83;;;21.20;73.70;22.40;96623.00;;;;5054464;28;20197;-84
2022/08/23 08:00:22;;;;;;;1.87;1.77;;;21.60;73.00;22.90;96636.00;;;;5067428;28;20228;-85
2022/08/23 08:02:52;;;;;;;2.07;1.87;;;21.80;72.80;23.00;96642.00;;;;5073673;28;20266;-86
2022/08/23 08:05:24;;;;;;;2.37;1.60;;;21.90;72.30;23.20;96648.00;;;;5073027;28;20675;-84
2022/08/23 08:07:52;;;;;;;1.80;1.70;;;22.10;72.50;23.40;96647.00;;;;5073982;28;20273;-85
2022/08/23 08:10:22;;;;;;;2.00;1.80;;;22.20;72.20;23.50;96642.00;;;;5072580;28;20228;-85
2022/08/23 08:12:52;;;;;;;1.53;1.43;;;22.40;71.70;23.70;96648.00;;;;5073538;28;20587;-87
2022/08/23 08:15:22;;;;;;;1.57;1.47;;;22.50;71.40;23.80;96649.00;;;;5073256;28;20692;-85
2022/08/23 08:17:53;;;;;;;1.60;1.47;;;22.70;70.50;24.00;96647.00;;;;5073616;28;20232;-85
2022/08/23 08:20:22;;;;;;;1.30;1.30;;;22.80;69.80;24.10;96664.00;;;;5072657;28;20242;-86
2022/08/23 08:22:53;;;;;;;2.60;1.70;;;23.00;69.70;24.30;96651.00;;;;5073089;28;20600;-85
2022/08/23 08:25:24;;;;;;;1.57;1.47;;;23.10;68.50;24.50;96657.00;;;;5072720;28;20242;-86
2022/08/23 08:28:01;;;;;;;2.83;1.40;;;23.30;67.60;24.70;96663.00;;;;5070070;28;20338;-87
2022/08/23 08:30:32;;;;;;;3.30;1.50;;;23.40;67.10;24.80;96656.00;;;;5072565;28;20569;-85
2022/08/23 08:33:04;;;;;;;1.70;1.60;;;23.60;66.20;25.00;96661.00;;;;5071994;28;20234;-85
2022/08/23 08:35:31;;;;;;;1.40;1.30;;;23.80;66.80;25.20;96665.00;;;;5072260;28;20207;-85
2022/08/23 08:38:02;;;;;;;1.73;1.53;;;24.00;66.30;25.40;96661.00;;;;5072647;28;20199;-85
2022/08/23 08:40:43;;;;;;;1.50;1.30;;;24.10;65.00;25.50;96664.00;;;;5073359;28;20223;-85
2022/08/23 08:43:46;;;;;;;1.70;1.60;;;24.30;65.10;25.70;96661.00;;;;5072752;28;20205;-85
2022/08/23 08:46:31;;;;;;;1.53;1.43;;;24.50;64.00;25.90;96667.00;;;;5072276;28;20253;-86
2022/08/23 08:49:03;;;;;;;2.07;1.40;;;24.70;64.00;26.10;96662.00;;;;5072875;28;20219;-85
2022/08/23 08:51:46;;;;;;;1.40;1.20;;;24.90;64.60;26.30;96660.00;;;;5071465;28;20230;-85
2022/08/23 08:54:19;;;;;;;1.27;1.17;;;25.00;63.40;26.50;96676.00;;;;5072841;28;20648;-85
2022/08/23 08:56:57;;;;;;;1.30;1.17;;;25.20;63.30;26.70;96657.00;;;;5070721;28;20287;-85
2022/08/23 08:59:45;;;;;;;1.70;1.60;;;25.40;61.50;26.90;96661.00;;;;5078341;28;20223;-85
2022/08/23 09:02:20;;;;;;;1.93;1.40;;;25.50;62.30;27.00;96664.00;;;;5082142;28;20261;-85
2022/08/23 09:04:51;;;;;;;1.90;1.20;;;25.60;60.80;27.20;96660.00;;;;5092524;28;20199;-85
2022/08/23 09:07:31;;;;;;;1.53;1.20;;;25.80;62.10;27.40;96664.00;;;;5058425;28;20213;-86
2022/08/23 09:10:27;;;;;;;1.50;1.10;;;26.00;61.20;27.50;96660.00;;;;5052647;28;20633;-85
2022/08/23 09:13:11;;;;;;;1.87;1.27;;;26.10;61.10;27.80;96658.00;;;;5052277;28;20291;-86
2022/08/23 09:16:03;;;;;;;1.20;1.10;;;26.20;60.00;28.00;96658.00;;;;5052405;28;20196;-85
2022/08/23 09:18:37;;;;;;;1.10;1.00;;;26.50;59.40;28.20;96667.00;;;;5052046;28;20184;-85
2022/08/23 09:21:09;;;;;;;0.93;0.93;;;26.60;58.80;28.30;96660.00;;;;5052083;28;20228;-85
2022/08/23 09:23:49;;;;;;;1.53;1.20;;;26.80;58.60;28.40;96659.00;;;;5051187;28;20723;-85
2022/08/23 09:26:28;;;;;;;1.77;1.07;;;26.90;58.20;28.50;96664.00;;;;5051131;28;20255;-85
2022/08/23 09:29:01;;;;;;;1.90;0.90;;;27.00;57.00;28.60;96663.00;;;;5051738;28;20570;-85
2022/08/23 09:31:43;;;;;;;1.10;0.90;;;27.10;57.80;28.70;96668.00;;;;5052300;28;20189;-85
2022/08/23 09:34:19;;;;;;;1.03;1.03;;;27.30;56.90;28.90;96670.00;;;;5071536;28;20658;-85
2022/08/23 09:36:50;;;;;;;1.00;1.00;;;27.40;56.90;29.00;96664.00;;;;5071465;28;20203;-85
2022/08/23 09:39:34;;;;;;;1.13;0.98;;;27.50;56.90;29.10;96667.00;;;;5071506;28;20273;-85
2022/08/23 09:42:13;;;;;;;0.98;0.98;;;27.60;55.40;29.20;96662.00;;;;5071285;28;20231;-85
2022/08/23 09:44:46;;;;;;;1.30;1.20;;;27.70;55.80;29.30;96660.00;;;;5071380;28;20617;-86
2022/08/23 09:47:18;;;;;;;1.03;1.00;;;27.80;55.30;29.40;96668.00;;;;5071771;28;20230;-85
2022/08/23 09:49:50;;;;;;;1.27;1.13;;;27.90;55.50;29.40;96668.00;;;;5072310;28;20683;-86
2022/08/23 09:52:33;;;;;;;4.38;1.15;;;28.00;54.80;29.50;96671.00;;;;5071739;28;20278;-86
2022/08/23 09:55:08;;;;;;;1.60;1.10;;;28.10;54.40;29.60;96666.00;;;;5070849;28;20223;-87
2022/08/23 09:57:36;;;;;;;1.63;0.90;;;28.10;54.40;29.70;96673.00;;;;5070838;28;20199;-85
2022/08/23 10:00:32;;;;;;;1.87;1.23;;;28.20;54.90;29.80;96667.00;;;;5070873;28;20768;-85
2022/08/23 10:03:24;;;;;;;1.38;1.10;;;28.30;53.00;29.90;96670.00;;;;5056781;28;20192;-86
2022/08/23 10:05:56;;;;;;;1.40;1.00;;;28.40;53.40;30.00;96660.00;;;;5050921;28;20246;-86
2022/08/23 10:08:33;;;;;;;1.15;1.05;;;28.50;53.80;30.20;96672.00;;;;5053239;28;20204;-85
2022/08/23 10:11:15;;;;;;;1.85;1.05;;;28.60;54.10;30.30;96665.00;;;;5055625;28;20607;-85
2022/08/23 10:13:46;;;;;;;0.80;0.80;;;28.70;53.30;30.30;96671.00;;;;5055825;28;20201;-85
2022/08/23 10:16:31;;;;;;;1.00;0.90;;;28.80;54.10;30.40;96664.00;;;;5055080;28;20212;-85
2022/08/23 10:19:11;;;;;;;1.40;1.00;;;28.90;53.00;30.50;96660.00;;;;5055136;28;20567;-86
2022/08/23 10:21:47;;;;;;;1.90;1.27;;;29.00;53.00;30.50;96661.00;;;;5054753;28;20201;-84
2022/08/23 10:24:23;;;;;;;1.83;1.20;;;29.10;53.20;30.60;96658.00;;;;5054919;28;20196;-84
2022/08/23 10:30:23;;;;;;;1.00;0.88;;;29.30;52.10;30.70;96660.00;;;;5054548;28;20212;-84
2022/08/23 10:33:13;;;;;;;1.27;1.17;;;29.50;54.10;30.80;96661.00;;;;5066536;28;20213;-84
2022/08/23 10:36:13;;;;;;;1.52;0.80;;;29.60;52.00;30.90;96657.00;;;;5074095;28;20618;-84
2022/08/23 10:38:49;;;;;;;1.15;1.08;;;29.80;52.50;31.00;96650.00;;;;5073888;28;20207;-84
2022/08/23 10:41:43;;;;;;;1.10;1.00;;;29.90;52.20;31.10;96653.00;;;;5074106;28;20196;-84
2022/08/23 10:44:28;;;;;;;2.33;1.10;;;30.00;50.20;31.10;96651.00;;;;5074247;28;20331;-85
2022/08/23 10:47:22;;;;;;;0.77;0.70;;;30.10;50.70;31.20;96643.00;;;;5073950;28;20684;-84
2022/08/23 10:49:58;;;;;;;0.80;0.80;;;30.30;50.90;31.20;96651.00;;;;5073886;28;20219;-84
2022/08/23 10:52:37;;;;;;;0.98;0.98;;;30.30;51.40;31.20;96646.00;;;;5073851;28;20679;-84
2022/08/23 10:55:34;;;;;;;2.10;0.77;;;30.40;50.30;31.10;96644.00;;;;5073674;28;20231;-84
2022/08/23 10:58:05;;;;;;;0.60;0.60;;;30.40;49.40;31.10;96647.00;;;;5073972;28;20207;-84
2022/08/23 11:00:34;;;;;;;1.10;1.00;;;30.40;49.80;31.00;96637.00;;;;5073802;28;20684;-84
2022/08/23 11:03:21;;;;;;;0.70;0.70;;;30.30;49.10;30.80;96645.00;;;;5073434;28;20212;-85
2022/08/23 11:06:32;;;;;;;1.27;0.85;;;30.30;47.70;30.60;96645.00;;;;5073996;28;20250;-84
2022/08/23 11:09:06;;;;;;;1.38;0.93;;;30.20;48.30;30.40;96647.00;;;;5074077;28;20220;-85
2022/08/23 11:12:20;;;;;;;0.85;0.80;;;30.00;48.90;30.20;96646.00;;;;5073463;28;20207;-84
2022/08/23 11:15:12;;;;;;;0.88;0.88;;;29.80;47.30;30.00;96641.00;;;;5073327;28;20222;-85
2022/08/23 11:18:04;;;;;;;1.58;0.95;;;29.70;49.10;29.90;96630.00;;;;5074104;28;20645;-84
2022/08/23 11:21:10;;;;;;;0.70;0.70;;;29.50;48.50;29.70;96638.00;;;;5073315;28;20289;-84
2022/08/23 11:23:53;;;;;;;1.20;0.70;;;29.40;48.80;29.60;96635.00;;;;5073723;28;20620;-85
2022/08/23 11:27:18;;;;;;;2.42;0.90;;;29.20;49.40;29.50;96626.00;;;;5073460;28;20199;-84
2022/08/23 11:29:54;;;;;;;1.55;0.77;;;29.10;48.70;29.40;96627.00;;;;5074192;28;20256;-85
2022/08/23 11:32:45;;;;;;;0.77;0.77;;;29.00;50.10;29.40;96634.00;;;;5065512;28;20258;-85
2022/08/23 11:35:41;;;;;;;1.00;0.70;;;28.90;48.40;29.30;96629.00;;;;5054110;28;20784;-85
2022/08/23 11:38:13;;;;;;;0.70;0.70;;;28.80;47.50;29.20;96636.00;;;;5054115;28;20250;-86
2022/08/23 11:41:00;;;;;;;1.25;0.90;;;28.70;48.80;29.20;96642.00;;;;5053746;28;20221;-86